Sonic Adventure (DX): Overall Rankings

Records: Times | Rings | Scores | Races | Bosses | Freestyle
Leaders: Times | Rings | Scores | Races | Bosses | Freestyle | Overall
Rank Player Percent Points Order Asc Date
1 Sonicspeedruner 98.3% 285 11-15-16
2 Gamepro011 98.1% 305 11-15-16
3 DarkPolarNight 96.2% 634 11-15-16
4 Jawzun 93.4% 1092 11-15-16
5 Dashjump 92.1% 1326 11-15-16
6 DarkspinesSonic 90.2% 1639 11-15-16
7 Avento128bits 89.9% 1688 11-15-16
8 ike6252 89.8% 1707 11-15-16
9 F-Man 87.9% 2018 11-15-16
10 Coolfansonic 86.2% 2301 11-15-16
11 HyperSonic7701 84.7% 2568 11-15-16
12 yoshifan 82.8% 2877 11-15-16
13 frankoredstrato 82.6% 2914 11-15-16
14 TheRealShadnic 82.3% 2959 11-15-16
15 francisco 81.7% 3062 11-15-16
16 Marth 81.3% 3124 11-15-16
17 InferSaime 80.0% 3341 11-15-16
18 PfoSonic 79.6% 3413 11-15-16
19 Paragod 79.3% 3465 11-15-16
20 THC98 78.6% 3582 11-15-16
21 Stefan 75.9% 4029 11-15-16
22 RPGnutter 73.8% 4382 11-15-16
23 bertin 73.7% 4409 11-15-16
24 sonicam 71.6% 4762 11-15-16
25 drminus 70.4% 4953 11-15-16
26 xXMegaManXx 70.2% 4986 11-15-16
27 Combo 65.7% 5754 11-15-16
28 SkyLights 64.5% 5946 11-15-16
29 Diamond 62.4% 6302 11-15-16
30 Auriman1 60.5% 6621 11-15-16
31 GerbilSoft 60.4% 6638 11-15-16
32 OmegaDJ 60.4% 6641 11-15-16
33 magnum12 59.6% 6781 11-15-16
34 Thorn 57.5% 7131 11-15-16
35 P1 Pause 57.3% 7166 11-15-16
36 mike89 56.1% 7353 11-15-16
37 Groudon199 54.2% 7676 11-15-16
38 Dave Cramer 54.2% 7678 11-15-16
39 chainchumper 54.1% 7688 11-15-16
40 Parax 53.3% 7823 11-15-16
41 Shadow Jacky 53.2% 7852 11-15-16
42 Psymar 47.9% 8729 11-15-16
43 Arch 47.2% 8853 11-15-16
44 Chao_Fan 46.4% 8995 11-15-16
45 mauserman 45.4% 9158 11-15-16
46 Quartz 45.3% 9181 11-15-16
47 teamblackarms 44.5% 9316 11-15-16
48 Psyknux 43.4% 9490 11-15-16
49 James_Bertolli 43.3% 9507 11-15-16
50 NintenDan 43.0% 9559 11-15-16
51 Webber3000 42.5% 9638 11-15-16
52 Turbos 42.4% 9663 11-15-16
53 Cream147 41.9% 9736 11-15-16
54 Ring Rush 41.9% 9738 11-15-16
55 videogamemaster777 41.8% 9753 11-15-16
56 Siavash Tazari 41.6% 9794 11-15-16
57 Fr3nZy 41.5% 9816 11-15-16
58 buddychaos0415 41.1% 9877 11-15-16
59 SadisticMystic 40.3% 10014 11-15-16
60 eggFL 39.7% 10109 11-15-16
61 Redd 38.8% 10269 11-15-16
62 SB737 38.2% 10371 11-15-16
63 supersonic465 37.4% 10504 11-15-16
64 supersonicfan 37.0% 10559 11-15-16
65 FuzZerd 35.8% 10771 11-15-16
66 Aitamen 35.3% 10852 11-15-16
67 elecmouse101 35.0% 10903 11-15-16
68 danieldude 34.8% 10934 11-15-16
69 metanightmare22 33.8% 11110 11-15-16
70 Austinf 33.7% 11121 11-15-16
71 dabestgamer 33.4% 11178 11-15-16
72 Cyan Ryan 33.3% 11187 11-15-16
73 MiStEr_ShAoLiN 33.2% 11210 11-15-16
74 Andrea Ritsu 32.3% 11353 11-15-16
75 itsPersonnal 31.9% 11415 11-15-16
76 Cybrax 31.1% 11549 11-15-16
77 SilvertheAlmighty 31.1% 11553 11-15-16
78 VMU Player Banned 29.1% 11892 11-15-16
79 Staf 28.9% 11933 11-15-16
80 Nimrod 28.7% 11954 11-15-16
81 ethmar 28.6% 11985 11-15-16
82 Omega Rafael Santos 28.5% 12001 11-15-16
83 The T 28.4% 12005 11-15-16
84 EngiNerd 28.2% 12038 11-15-16
85 lordmetalsonic 27.7% 12133 11-15-16
86 Hipertails12 27.1% 12232 11-15-16
87 welldooder64 27.1% 12234 11-15-16
88 GreatStar 26.8% 12283 11-15-16
89 The Great Lord Mick 26.7% 12292 11-15-16
90 Sondow 26.7% 12299 11-15-16
91 LinksDarkArrows 26.5% 12326 11-15-16
92 Mastakirby 26.5% 12337 11-15-16
93 Skylace 25.5% 12505 11-15-16
94 a_moustache 24.4% 12676 11-15-16
95 Rolken 24.1% 12740 11-15-16
96 Kogen Player Banned 22.3% 13034 11-15-16
97 Xia 22.2% 13047 11-15-16
98 Spinballwizard 22.2% 13050 11-15-16
99 Twilisailor 21.8% 13122 11-15-16
100 f0rever_zer0 21.8% 13125 11-15-16
101 Cutiefox 21.5% 13161 11-15-16
102 Don 21.5% 13171 11-15-16
103 Game_Complete 21.4% 13179 11-15-16
104 Miles9999 21.3% 13197 11-15-16
105 andres430 20.9% 13264 11-15-16
106 Cruizer 20.7% 13308 11-15-16
107 iSonicKid2K 20.6% 13321 11-15-16
108 SADXTryHard 20.3% 13374 11-15-16
109 GarnetPrincess 19.9% 13445 11-15-16
110 AxlThunder 19.2% 13562 11-15-16
111 knuckles_sonic8 18.7% 13631 11-15-16
112 The Knuckles Chao 18.3% 13699 11-15-16
112 KinkyCadence 18.3% 13699 11-15-16
114 Team_Yoshi 18.0% 13758 11-15-16
115 Termon 17.9% 13768 11-15-16
115 LittleBigness 17.9% 13768 11-15-16
117 SonicWinDX 17.8% 13797 11-15-16
118 FoxBoy 17.7% 13812 11-15-16
119 Drakodan 16.9% 13934 11-15-16
120 Sonic Singularity 15.9% 14107 11-15-16
121 Pokemonmaster888 15.7% 14135 11-15-16
122 BigAL49 14.8% 14294 11-15-16
123 MPit08 14.6% 14325 11-15-16
124 SilverSonic 14.6% 14327 11-15-16
125 WeegeeZV 14.3% 14371 11-15-16
126 koinu93 14.1% 14407 11-15-16
127 Mo Player Banned 14.1% 14409 11-15-16
128 Cod4Scopes 13.8% 14465 11-15-16
129 HyperSonic64 13.8% 14469 11-15-16
130 booo95 13.6% 14494 11-15-16
131 Jerzia 13.4% 14521 11-15-16
132 paulie9990 13.3% 14540 11-15-16
133 Chawkk 13.3% 14541 11-15-16
134 SuperSonic101 13.1% 14585 11-15-16
135 Hunters13 13.0% 14588 11-15-16
136 Maxinfamily 13.0% 14602 11-15-16
137 Kanimayo_Jp 12.7% 14649 11-15-16
138 LilZero 12.7% 14654 11-15-16
139 BrokenArthritis 12.6% 14670 11-15-16
140 Flying Fox 12.4% 14698 11-15-16
140 PsyBorg 12.4% 14698 11-15-16
142 Therio 12.1% 14744 11-15-16
143 sonicspeed 12.0% 14768 11-15-16
144 douglas 11.8% 14793 11-15-16
145 Matt_TY 11.5% 14854 11-15-16
146 thewaytodawnnn 11.4% 14865 11-15-16
147 Cooljay 10.9% 14944 11-15-16
148 SuperBlitzCraig 10.8% 14964 11-15-16
149 joecoolgames 10.7% 14975 11-15-16
150 SeaWolf 10.7% 14982 11-15-16
151 videogamer1014 10.5% 15017 11-15-16
152 AC-Tygo 10.3% 15056 11-15-16
153 welshmoose05 10.2% 15067 11-15-16
154 OddCook 10.0% 15102 11-15-16
155 crazy1993 9.9% 15119 11-15-16
155 TFEC Headshot 9.9% 15119 11-15-16
157 Mcshuggets 9.7% 15148 11-15-16
158 N 9.4% 15197 11-15-16
159 niscool 9.4% 15198 11-15-16
160 imazor017 9.4% 15207 11-15-16
161 nuckrieg 9.2% 15234 11-15-16
161 Mariobutch 9.2% 15234 11-15-16
163 SonicAD 9.2% 15237 11-15-16
164 SirTobbii 9.1% 15253 11-15-16
165 Shadowthegreat 9.1% 15255 11-15-16
166 superjupi 9.0% 15260 11-15-16
167 sonamyfan666 8.7% 15313 11-15-16
168 iarebored 8.6% 15326 11-15-16
169 SonicKnuckles 8.6% 15339 11-15-16
169 SaviourDC 8.6% 15339 11-15-16
171 Werey 8.3% 15391 11-15-16
172 adf 8.2% 15397 11-15-16
173 Megaman EXE565 8.0% 15432 11-15-16
174 ArcticDragon 7.6% 15496 11-15-16
175 Platformer 7.6% 15503 11-15-16
176 timpkmn89 7.5% 15522 11-15-16
177 FocusSight64 7.3% 15546 11-15-16
178 Swift Hobo 7.3% 15548 11-15-16
179 wheatrich 7.3% 15554 11-15-16
180 Rickyman48 7.1% 15578 11-15-16
181 KitsuneYamaro 7.0% 15597 11-15-16
182 Powerjohn25 6.9% 15618 11-15-16
183 Triseena 6.8% 15634 11-15-16
184 SonataSpinDash 6.7% 15658 11-15-16
185 CyberShadow 6.5% 15680 11-15-16
186 dShadow 6.5% 15681 11-15-16
187 slade23 6.5% 15687 11-15-16
187 Starlight Sable 6.5% 15687 11-15-16
189 Destroyer121121 6.5% 15693 11-15-16
190 IsisDazs 6.3% 15712 11-15-16
191 BlankTH 6.2% 15743 11-15-16
192 Monkeh 6.0% 15769 11-15-16
193 Badlex727 6.0% 15777 11-15-16
194 SonicU260 5.8% 15797 11-15-16
195 Richied 5.8% 15799 11-15-16
196 DaDude 5.7% 15816 11-15-16
197 Vicklaw 5.7% 15828 11-15-16
198 sonicd5 5.6% 15840 11-15-16
198 Zip 5.6% 15840 11-15-16
200 ALundstrom10 5.2% 15902 11-15-16
201 tal39h 5.2% 15911 11-15-16
202 VeritasDL 5.1% 15915 11-15-16
203 Kirbymon30 5.1% 15922 11-15-16
204 soniccoloursunleashed 4.9% 15948 11-15-16
205 Drflash55 4.9% 15951 11-15-16
206 Bass 4.8% 15967 11-15-16
207 neaolas 4.7% 15982 11-15-16
208 Yish 4.7% 15990 11-15-16
209 zapp 4.6% 15998 11-15-16
210 UninspiredUsername 4.6% 16006 11-15-16
210 superiorsonic 4.6% 16006 11-15-16
212 Sonicsuperstar1 4.6% 16012 11-15-16
213 gamefreak1292 4.5% 16024 11-15-16
214 Chaos_Overlord 4.2% 16072 11-15-16
215 TakaRikka 4.1% 16093 11-15-16
216 Valfore 4.0% 16106 11-15-16
217 ShinigamiMachine 3.8% 16134 11-15-16
218 Regano1000 3.8% 16146 11-15-16
219 MK 3.6% 16168 11-15-16
220 Ace747 3.6% 16176 11-15-16
221 Illidan 3.2% 16243 11-15-16
222 HHNNBBHHN 3.2% 16246 11-15-16
223 Venick409 3.1% 16253 11-15-16
224 Brian_pso 3.1% 16254 11-15-16
225 nman36 3.1% 16255 11-15-16
226 Sithwarrior26 3.1% 16256 11-15-16
227 Egor305 3.0% 16279 11-15-16
228 ingx24 3.0% 16282 11-15-16
229 TheChaosEmeraIds 2.9% 16286 11-15-16
230 Nickson98 2.9% 16291 11-15-16
230 SkyBon 2.9% 16291 11-15-16
232 Fozer 2.8% 16305 11-15-16
233 FSSRandomvids 2.8% 16312 11-15-16
234 Colomb_30 2.8% 16313 11-15-16
235 dekki1234 2.7% 16319 11-15-16
236 Aiko 2.7% 16329 11-15-16
237 sonic29887 2.7% 16331 11-15-16
238 TheUltraBlur 2.6% 16335 11-15-16
239 1stKirbyever 2.6% 16339 11-15-16
240 TimTH 2.6% 16348 11-15-16
241 Th4tN1nj4Turtl3 2.4% 16378 11-15-16
242 Cort_pso 2.3% 16387 11-15-16
243 Doom-9 2.3% 16394 11-15-16
243 ieatatsonic 2.3% 16394 11-15-16
245 Mariosonic15 2.3% 16397 11-15-16
246 HermitHelmet 2.1% 16418 11-15-16
246 MStitomix 2.1% 16418 11-15-16
248 Artie 2.1% 16433 11-15-16
249 Got4n 2.0% 16434 11-15-16
250 SuperSonic71087 2.0% 16440 11-15-16
251 Jose_15 2.0% 16446 11-15-16
252 Questionguy555 1.9% 16452 11-15-16
253 SuperSonicfan9595 1.9% 16463 11-15-16
254 djmat 1.8% 16468 11-15-16
255 sonicandamy Player Banned 1.7% 16488 11-15-16
256 LancexExWx 1.7% 16495 11-15-16
257 Paixii 1.7% 16496 11-15-16
258 son1cgu1tar 1.7% 16499 11-15-16
258 Heroes_Hater 1.7% 16499 11-15-16
260 BallzeH 1.6% 16511 11-15-16
261 Mankster101 1.6% 16517 11-15-16
262 BecauseWarAnvil 1.5% 16519 11-15-16
263 Jamixesa 1.5% 16522 11-15-16
264 Crydio 1.5% 16531 11-15-16
265 Shanekilz 1.4% 16537 11-15-16
266 SpiritDragon1995 1.4% 16538 11-15-16
267 ReuelBrony 1.4% 16544 11-15-16
268 MarewBFN 1.3% 16551 11-15-16
269 stanski 1.3% 16552 11-15-16
270 Sonique Hedgehog 1.3% 16558 11-15-16
271 p0ker 1.3% 16565 11-15-16
272 Blue Infamy 1.2% 16569 11-15-16
273 ErrortheCucco 1.2% 16580 11-15-16
274 Rikum22 1.2% 16583 11-15-16
275 Arthas 1.1% 16585 11-15-16
276 sonic1001 1.1% 16591 11-15-16
277 AJSIV 1.1% 16596 11-15-16
278 syco1098 1.1% 16598 11-15-16
278 WingedInsignia 1.1% 16598 11-15-16
280 Sonic the Hedgehod16 1.1% 16601 11-15-16
281 Calfd 1.0% 16608 11-15-16
282 sonicfan9 1.0% 16609 11-15-16
283 BlackArmsShadow 0.9% 16619 11-15-16
284 themachoman202 0.9% 16622 11-15-16
285 shadowblast63 Player Banned 0.9% 16629 11-15-16
286 Greham Adelphis 0.9% 16631 11-15-16
287 Mr. Jones 0.9% 16632 11-15-16
287 Fivavoa 0.9% 16632 11-15-16
289 darkstarblaze 0.9% 16633 11-15-16
290 MastaToken 0.9% 16634 11-15-16
291 arcfx1985 0.8% 16635 11-15-16
292 Ben1502 0.8% 16636 11-15-16
293 ptorflaxendrosis 0.8% 16637 11-15-16
294 TommyeAsY 0.8% 16638 11-15-16
295 FlandreScarlet9999vr 0.8% 16642 11-15-16
296 Gvozdevik 0.8% 16643 11-15-16
297 Knuckles 0.8% 16645 11-15-16
297 Zeldocto 0.8% 16645 11-15-16
299 BeeAwwb 0.8% 16649 11-15-16
300 KaM Mark MaK 0.8% 16650 11-15-16
301 ShadouZaHejjihoggu 0.7% 16657 11-15-16
302 Sonic The Star 0.7% 16664 11-15-16
303 Sonic62 0.7% 16665 11-15-16
303 darkersupershadic 0.7% 16665 11-15-16
305 Sarger001 0.7% 16668 11-15-16
306 dragondragon18 0.6% 16670 11-15-16
307 Grady219 0.6% 16671 11-15-16
308 Shadygamerfreak 0.6% 16672 11-15-16
308 Sogeking 0.6% 16672 11-15-16
308 SonicK100 0.6% 16672 11-15-16
311 Jawaah 0.6% 16677 11-15-16
312 Antek 0.6% 16681 11-15-16
313 Klaus 0.6% 16683 11-15-16
314 SilverK 0.6% 16684 11-15-16
315 BioShadow 0.5% 16686 11-15-16
316 SpinDashMaster 0.5% 16691 11-15-16
317 Videogamer123 0.5% 16694 11-15-16
318 oTaiIilLsS 0.4% 16707 11-15-16
319 isaihtb11 0.4% 16708 11-15-16
320 OhNoes! 0.4% 16710 11-15-16
321 zaktu40 0.4% 16711 11-15-16
322 gaara1234 0.4% 16714 11-15-16
322 S-MS32X-S 0.4% 16714 11-15-16
322 Mad Andy 0.4% 16714 11-15-16
325 gamed00d 0.4% 16718 11-15-16
326 Mister_Slick 0.3% 16725 11-15-16
327 Sonic06Fan 0.3% 16728 11-15-16
328 Rush Hero 0.3% 16730 11-15-16
329 SonicMega167 0.3% 16735 11-15-16
330 Iwannabelink 0.2% 16737 11-15-16
331 sonknuck23 0.2% 16740 11-15-16
332 gamer1245 0.2% 16748 11-15-16
332 DanielTheFalcon 0.2% 16748 11-15-16
334 Burningskull123 0.1% 16754 11-15-16
335 Sonicontherun 0.1% 16765 11-15-16
336 Lil_Dude 0.1% 16769 11-15-16
337 antiwwe 0.0% 16771 11-15-16
338 Genuine Hedgehog 0.0% 16775 11-15-16
339 Cbwade15 0.0% 16776 11-15-16
340 Tyrouble 0.0% 16779 11-15-16
341 Tran Sonic Fan Player Banned 0.0% 16786 11-15-16
341 sdj6707 Player Banned 0.0% 16786 11-15-16
341 neji_hyuuga 0.0% 16786 11-15-16
341 MegabombBlade 0.0% 16786 11-15-16
341 Over 0.0% 16786 11-15-16

This page is using the New Data Table System. [FUTURE]

Game ID: 3 | Category ID: 10
Hits: 68,049 | Hits This Month: 17 | DB Calls: 21 | Mem Usage: 5.47 MB | Time: 0.14s | Printable

The Sonic Center v3.9
Copyright 2003-2011 by The Sonic Center Team.